Pagina principale
METAR-TAF:

METAR-TAF

Aeroporti :

Bad Vöslau, Austria

latitudine: 47-57-52N, longitudine: 016-15-34E, altezza: 233 m

Osservazione

Il bollettino è stato emesso 1 ora e 5 minuti fa, alle 15:00 UTC
Vento 19 kt da ovest con raffiche fino a 30 kt
Temperature 18°C
Umidità 37%
Pressione

METAR: LOAV 231500Z 28019G30KT 20KM BKN030CU 18/03

Ora: 18:05 (16:05 UTC)

Previsione

Il bollettino è stato emesso 4 ore e 40 minuti fa, alle 11:25 UTC
Previsione valida dal 23 alle 12 UTC al 23 alle 21 UTC
Vento 12 kt da nord-ovest
Visibilità 10 km o più
Nubi sparse ad un'altezza di 3000 ft
Nuvoloso ad un'altezza di 10000 ft
Temporaneamente
dal 23 alle 12 UTC al 23 alle 19 UTC
Vento 15 kt da nord/nord-ovest con raffiche fino a 25 kt
Nubi sparse ad un'altezza di 3000 ft
Nuvoloso ad un'altezza di 4000 ft

TAF: LOAV 231125Z 2312/2321 32012KT 9999 SCT030 BKN100 TEMPO 2312/2319 33015G25KT SCT030 BKN040

Osservazioni e previsioni meteorologiche di più di 4000 aeroporti (messaggi METAR e TAF).

Le stazioni disponibili sono rappresentate dai dischi gialli e rossi sulla carta.

Puntare il mouse per vedere il nome della stazione.

Clicca sopra per visualizzare le osservazioni e previsioni meteorologiche.

Per cambiare la mappa : fare clic sui pulsanti verdi con una croce nera per ingrandire, il pulsante verde con un trattino per diminuire, o sulla freccia verde per le mappe adiacenti.


METAR-TAF: